createdAt,value
2023-05-21T00:02:29.990Z,17.31
2023-05-21T00:04:58.378Z,17.28
2023-05-21T00:07:27.173Z,17.28
2023-05-21T00:09:55.793Z,17.26
2023-05-21T00:12:24.181Z,17.25
2023-05-21T00:14:52.843Z,17.24
2023-05-21T00:17:21.065Z,17.23
2023-05-21T00:19:51.814Z,17.24
2023-05-21T00:22:21.007Z,17.20
2023-05-21T00:24:49.200Z,17.19
2023-05-21T00:27:17.846Z,17.18
2023-05-21T00:29:46.690Z,17.16
2023-05-21T00:32:15.279Z,17.16
2023-05-21T00:34:44.330Z,17.15
2023-05-21T00:37:15.287Z,17.16
2023-05-21T00:39:43.934Z,17.14
2023-05-21T00:42:12.464Z,17.12
2023-05-21T00:44:41.313Z,17.10
2023-05-21T00:47:09.887Z,17.11
2023-05-21T00:49:38.478Z,17.09
2023-05-21T00:52:07.839Z,17.10
2023-05-21T00:54:37.574Z,17.09
2023-05-21T00:57:06.871Z,17.06
2023-05-21T00:59:35.640Z,17.04
2023-05-21T01:02:06.687Z,17.05
2023-05-21T01:04:35.501Z,17.01
2023-05-21T01:07:04.082Z,17.00
2023-05-21T01:09:33.023Z,16.98
2023-05-21T01:12:04.172Z,16.97
2023-05-21T01:14:34.705Z,16.94
2023-05-21T01:17:05.716Z,16.92
2023-05-21T01:19:35.478Z,16.89
2023-05-21T01:22:07.164Z,16.88
2023-05-21T01:24:37.549Z,16.85
2023-05-21T01:27:07.730Z,16.83
2023-05-21T01:29:36.529Z,16.82
2023-05-21T01:32:13.335Z,16.83
2023-05-21T01:34:49.124Z,16.82
2023-05-21T01:37:23.754Z,16.79
2023-05-21T01:39:56.942Z,16.77
2023-05-21T01:42:26.425Z,16.75
2023-05-21T01:44:58.217Z,16.74
2023-05-21T01:47:30.874Z,16.71
2023-05-21T01:50:00.473Z,16.67
2023-05-21T01:52:29.402Z,16.64
2023-05-21T01:55:00.378Z,16.64
2023-05-21T01:57:29.135Z,16.62
2023-05-21T01:59:58.738Z,16.61
2023-05-21T02:02:27.470Z,16.58
2023-05-21T02:04:56.124Z,16.58
2023-05-21T02:07:24.845Z,16.57
2023-05-21T02:09:53.385Z,16.57
2023-05-21T02:12:23.092Z,16.56
2023-05-21T02:14:51.924Z,16.53
2023-05-21T02:17:21.800Z,16.52
2023-05-21T02:19:50.341Z,16.52
2023-05-21T02:22:18.825Z,16.51
2023-05-21T02:24:47.608Z,16.50
2023-05-21T02:27:17.723Z,16.49
2023-05-21T02:29:47.329Z,16.50
2023-05-21T02:32:16.865Z,16.48
2023-05-21T02:34:47.299Z,16.48
2023-05-21T02:37:15.982Z,16.48
2023-05-21T02:39:44.622Z,16.46
2023-05-21T02:42:13.356Z,16.46
2023-05-21T02:44:42.101Z,16.44
2023-05-21T02:47:12.635Z,16.44
2023-05-21T02:49:41.415Z,16.42
2023-05-21T02:52:10.677Z,16.42
2023-05-21T02:54:39.373Z,16.42
2023-05-21T02:57:07.931Z,16.42
2023-05-21T02:59:36.450Z,16.41
2023-05-21T03:02:05.150Z,16.41
2023-05-21T03:04:39.282Z,16.42
2023-05-21T03:07:10.103Z,16.43
2023-05-21T03:09:38.737Z,16.42
2023-05-21T03:12:07.718Z,16.41
2023-05-21T03:14:36.419Z,16.40
2023-05-21T03:17:06.120Z,16.41
2023-05-21T03:19:37.411Z,16.42
2023-05-21T03:22:07.649Z,16.41
2023-05-21T03:24:38.677Z,16.42
2023-05-21T03:27:08.436Z,16.43
2023-05-21T03:29:37.583Z,16.41
2023-05-21T03:32:08.368Z,16.40
2023-05-21T03:34:38.489Z,16.41
2023-05-21T03:37:07.334Z,16.39
2023-05-21T03:39:36.325Z,16.38
2023-05-21T03:42:04.861Z,16.37
2023-05-21T03:44:41.132Z,16.37
2023-05-21T03:47:27.830Z,16.36
2023-05-21T03:49:57.633Z,16.37
2023-05-21T03:52:26.206Z,16.39
2023-05-21T03:54:54.883Z,16.40
2023-05-21T03:57:23.538Z,16.39
2023-05-21T03:59:52.257Z,16.39
2023-05-21T04:02:22.338Z,16.41
2023-05-21T04:04:51.778Z,16.42
2023-05-21T04:07:22.321Z,16.43
2023-05-21T04:09:50.944Z,16.43
2023-05-21T04:12:21.147Z,16.44
2023-05-21T04:14:49.750Z,16.44
2023-05-21T04:17:19.167Z,16.46
2023-05-21T04:19:47.888Z,16.47
2023-05-21T04:22:16.630Z,16.47
2023-05-21T04:24:48.794Z,16.50
2023-05-21T04:27:23.601Z,16.48
2023-05-21T04:29:54.942Z,16.48
2023-05-21T04:32:25.981Z,16.48
2023-05-21T04:34:54.334Z,16.49
2023-05-21T04:37:24.546Z,16.49
2023-05-21T04:39:55.696Z,16.50
2023-05-21T04:42:24.899Z,16.49
2023-05-21T04:44:55.495Z,16.48
2023-05-21T04:47:25.373Z,16.50
2023-05-21T04:49:54.633Z,16.49
2023-05-21T04:52:25.078Z,16.50
2023-05-21T04:54:55.018Z,16.52
2023-05-21T04:57:24.518Z,16.52
2023-05-21T04:59:53.220Z,16.54
2023-05-21T05:02:21.875Z,16.56
2023-05-21T05:04:50.437Z,16.60
2023-05-21T05:07:19.194Z,16.63
2023-05-21T05:09:48.718Z,16.65
2023-05-21T05:12:18.452Z,16.68
2023-05-21T05:14:47.766Z,16.69
2023-05-21T05:17:16.404Z,16.72
2023-05-21T05:19:45.521Z,16.74
2023-05-21T05:22:13.826Z,16.75
2023-05-21T05:24:43.798Z,16.79
2023-05-21T05:27:12.382Z,16.82
2023-05-21T05:29:42.008Z,16.84
2023-05-21T05:32:10.561Z,16.85
2023-05-21T05:34:39.388Z,16.88
2023-05-21T05:37:07.947Z,16.91
2023-05-21T05:39:36.622Z,16.95
2023-05-21T05:42:05.768Z,16.98
2023-05-21T05:44:34.433Z,17.02
2023-05-21T05:47:09.127Z,17.05
2023-05-21T05:49:37.697Z,17.06
2023-05-21T05:52:07.151Z,17.07
2023-05-21T05:54:35.946Z,17.07
2023-05-21T05:57:04.676Z,17.10
2023-05-21T05:59:33.839Z,17.12
2023-05-21T06:02:04.826Z,17.13
2023-05-21T06:04:33.453Z,17.17
2023-05-21T06:07:02.480Z,17.19
2023-05-21T06:09:31.282Z,17.21
2023-05-21T06:11:59.650Z,17.22
2023-05-21T06:14:28.281Z,17.26
2023-05-21T06:16:56.921Z,17.29
2023-05-21T06:19:28.806Z,17.33
2023-05-21T06:21:57.809Z,17.36
2023-05-21T06:24:27.785Z,17.43
2023-05-21T06:26:56.446Z,17.50
2023-05-21T06:29:25.114Z,17.62
2023-05-21T06:31:53.543Z,17.71
2023-05-21T06:34:22.419Z,17.85
2023-05-21T06:36:52.551Z,17.99
2023-05-21T06:39:21.014Z,18.13
2023-05-21T06:41:50.351Z,18.24
2023-05-21T06:44:41.430Z,18.38
2023-05-21T06:47:25.591Z,18.47
2023-05-21T06:49:54.300Z,18.52
2023-05-21T06:52:24.528Z,18.59
2023-05-21T06:54:53.258Z,18.65
2023-05-21T06:57:22.141Z,18.76
2023-05-21T06:59:50.856Z,18.83
2023-05-21T07:02:19.469Z,18.96
2023-05-21T07:04:48.330Z,19.08
2023-05-21T07:07:16.849Z,19.20
2023-05-21T07:09:46.570Z,19.34
2023-05-21T07:12:15.186Z,19.44
2023-05-21T07:14:43.746Z,19.54
2023-05-21T07:17:12.401Z,19.68
2023-05-21T07:19:40.713Z,19.82
2023-05-21T07:22:09.290Z,20.00
2023-05-21T07:24:37.858Z,20.17
2023-05-21T07:27:17.678Z,20.39
2023-05-21T07:29:53.878Z,20.70
2023-05-21T07:32:23.183Z,21.19
2023-05-21T07:34:53.541Z,21.92
2023-05-21T07:37:23.437Z,22.79
2023-05-21T07:39:52.035Z,23.66
2023-05-21T07:42:21.804Z,24.45
2023-05-21T07:44:50.435Z,25.01
2023-05-21T07:47:19.235Z,25.49
2023-05-21T07:49:47.556Z,25.89
2023-05-21T07:52:16.209Z,26.21
2023-05-21T07:54:44.971Z,26.49
2023-05-21T07:57:13.561Z,26.78
2023-05-21T08:00:07.429Z,27.09
2023-05-21T08:02:43.844Z,27.31
2023-05-21T08:05:16.256Z,27.56
2023-05-21T08:07:46.280Z,27.81
2023-05-21T08:10:15.732Z,27.99
2023-05-21T08:12:46.087Z,28.09
2023-05-21T08:15:15.705Z,28.13
2023-05-21T08:17:46.928Z,28.13
2023-05-21T08:20:16.137Z,28.22
2023-05-21T08:22:46.902Z,28.31
2023-05-21T08:25:15.526Z,28.40
2023-05-21T08:27:44.131Z,28.40
2023-05-21T08:30:13.385Z,28.44
2023-05-21T08:32:43.441Z,28.54
2023-05-21T08:35:12.414Z,28.67
2023-05-21T08:37:57.492Z,28.86
2023-05-21T08:40:44.354Z,28.96
2023-05-21T08:43:15.726Z,28.97
2023-05-21T08:45:53.553Z,28.98
2023-05-21T08:48:24.493Z,29.09
2023-05-21T08:50:54.664Z,29.12
2023-05-21T08:53:29.317Z,29.26
2023-05-21T08:55:59.101Z,29.39
2023-05-21T08:58:48.225Z,29.49
2023-05-21T09:01:21.567Z,29.62
2023-05-21T09:04:12.238Z,29.70
2023-05-21T09:06:48.849Z,29.73
2023-05-21T09:09:33.618Z,29.89
2023-05-21T09:12:02.600Z,29.80
2023-05-21T09:14:32.585Z,29.72
2023-05-21T09:17:09.952Z,29.77
2023-05-21T09:19:40.128Z,29.88
2023-05-21T09:22:08.853Z,29.79
2023-05-21T09:24:37.534Z,29.80
2023-05-21T09:27:08.514Z,29.96
2023-05-21T09:29:37.462Z,30.09
2023-05-21T09:32:12.213Z,30.16
2023-05-21T09:34:42.875Z,30.10
2023-05-21T09:37:23.828Z,30.03
2023-05-21T09:39:56.368Z,29.94
2023-05-21T09:42:25.034Z,30.10
2023-05-21T09:44:53.786Z,30.54
2023-05-21T09:47:22.552Z,30.97
2023-05-21T09:49:52.242Z,31.12
2023-05-21T09:52:28.213Z,31.25
2023-05-21T09:54:56.821Z,31.02
2023-05-21T09:57:26.716Z,30.80
2023-05-21T09:59:56.328Z,30.67
2023-05-21T10:02:26.787Z,30.45
2023-05-21T10:04:57.905Z,30.40
2023-05-21T10:07:28.240Z,30.44
2023-05-21T10:09:58.495Z,30.54
2023-05-21T10:12:28.823Z,30.71
2023-05-21T10:15:02.574Z,30.96
2023-05-21T10:17:32.005Z,31.00
2023-05-21T10:20:03.423Z,31.03
2023-05-21T10:22:32.178Z,31.12
2023-05-21T10:25:03.335Z,31.30
2023-05-21T10:27:32.694Z,31.57
2023-05-21T10:30:01.766Z,31.99
2023-05-21T10:32:31.358Z,32.47
2023-05-21T10:35:02.701Z,32.84
2023-05-21T10:37:31.577Z,33.04
2023-05-21T10:39:59.816Z,33.26
2023-05-21T10:43:10.853Z,33.80
2023-05-21T10:46:10.564Z,34.11
2023-05-21T10:48:58.111Z,34.23
2023-05-21T10:51:30.509Z,34.15
2023-05-21T10:54:52.841Z,34.28
2023-05-21T10:57:46.107Z,34.29
2023-05-21T11:00:20.426Z,34.23
2023-05-21T11:02:49.347Z,34.54
2023-05-21T11:05:17.816Z,34.61
2023-05-21T11:07:57.639Z,34.67
2023-05-21T11:10:44.388Z,34.70
2023-05-21T11:13:14.665Z,34.83
2023-05-21T11:16:08.841Z,34.93
2023-05-21T11:19:03.473Z,34.93
2023-05-21T11:21:35.119Z,34.99
2023-05-21T11:24:08.677Z,35.20
2023-05-21T11:27:04.641Z,35.49
2023-05-21T11:29:44.698Z,35.65
2023-05-21T11:32:20.588Z,35.76
2023-05-21T11:34:49.497Z,35.89
2023-05-21T11:37:34.685Z,36.26
2023-05-21T11:40:26.755Z,36.37
2023-05-21T11:42:57.258Z,36.24
2023-05-21T11:45:32.259Z,36.24
2023-05-21T11:48:01.806Z,36.04
2023-05-21T11:50:33.709Z,36.04
2023-05-21T11:53:03.179Z,36.14
2023-05-21T11:55:33.139Z,36.22
2023-05-21T11:58:02.245Z,36.25
2023-05-21T12:00:30.994Z,36.51
2023-05-21T12:02:59.412Z,36.55
2023-05-21T12:05:28.138Z,36.58
2023-05-21T12:07:58.331Z,36.72
2023-05-21T12:10:27.171Z,36.88
2023-05-21T12:12:57.466Z,36.92
2023-05-21T12:15:27.882Z,36.91
2023-05-21T12:17:57.175Z,36.91
2023-05-21T12:20:28.899Z,37.09
2023-05-21T12:22:59.890Z,37.14
2023-05-21T12:25:29.878Z,37.36
2023-05-21T12:28:01.899Z,37.44
2023-05-21T12:30:30.836Z,37.50
2023-05-21T12:33:02.122Z,37.53
2023-05-21T12:35:32.559Z,37.52
2023-05-21T12:38:03.477Z,37.57
2023-05-21T12:40:39.600Z,37.83
2023-05-21T12:43:10.094Z,38.08
2023-05-21T12:45:40.580Z,38.26
2023-05-21T12:48:09.670Z,38.30
2023-05-21T12:50:41.627Z,38.43
2023-05-21T12:53:11.932Z,38.45
2023-05-21T12:55:41.122Z,38.21
2023-05-21T12:58:15.384Z,38.01
2023-05-21T13:00:45.410Z,38.01
2023-05-21T13:03:14.400Z,37.76
2023-05-21T13:05:43.173Z,37.86
2023-05-21T13:08:14.082Z,37.86
2023-05-21T13:10:42.802Z,37.64
2023-05-21T13:13:12.512Z,37.49
2023-05-21T13:15:41.029Z,37.45
2023-05-21T13:18:09.873Z,37.41
2023-05-21T13:20:38.948Z,37.42
2023-05-21T13:23:09.769Z,37.34
2023-05-21T13:25:39.965Z,37.23
2023-05-21T13:28:10.317Z,37.13
2023-05-21T13:30:40.056Z,37.00
2023-05-21T13:33:08.674Z,36.98
2023-05-21T13:35:37.568Z,36.97
2023-05-21T13:38:05.882Z,37.04
2023-05-21T13:40:36.561Z,36.96
2023-05-21T13:43:06.779Z,36.69
2023-05-21T13:45:35.738Z,36.33
2023-05-21T13:48:06.448Z,35.91
2023-05-21T13:50:35.205Z,35.63
2023-05-21T13:53:03.610Z,35.61
2023-05-21T13:55:31.928Z,35.54
2023-05-21T13:58:00.161Z,35.44
2023-05-21T14:00:28.455Z,35.53
2023-05-21T14:02:57.228Z,35.59
2023-05-21T14:05:26.938Z,35.51
2023-05-21T14:07:55.519Z,35.28
2023-05-21T14:10:23.996Z,34.93
2023-05-21T14:12:52.622Z,34.75
2023-05-21T14:15:21.045Z,34.46
2023-05-21T14:17:49.642Z,34.37
2023-05-21T14:20:18.294Z,34.40
2023-05-21T14:22:47.850Z,34.43
2023-05-21T14:25:16.170Z,34.44
2023-05-21T14:27:44.455Z,34.39
2023-05-21T14:30:13.466Z,34.28
2023-05-21T14:32:42.184Z,34.08
2023-05-21T14:35:10.873Z,33.91
2023-05-21T14:37:39.508Z,33.79
2023-05-21T14:40:10.990Z,33.67
2023-05-21T14:42:39.615Z,33.53
2023-05-21T14:45:18.624Z,33.40
2023-05-21T14:47:48.797Z,33.26
2023-05-21T14:50:18.434Z,33.11
2023-05-21T14:52:47.187Z,33.04
2023-05-21T14:55:18.443Z,33.00
2023-05-21T14:57:47.075Z,32.99
2023-05-21T15:00:16.134Z,32.96
2023-05-21T15:02:45.012Z,32.94
2023-05-21T15:05:13.667Z,32.89
2023-05-21T15:07:42.018Z,32.79
2023-05-21T15:10:11.545Z,32.71
2023-05-21T15:12:42.097Z,32.64
2023-05-21T15:15:12.242Z,32.59
2023-05-21T15:17:41.267Z,32.56
2023-05-21T15:20:10.787Z,32.51
2023-05-21T15:22:39.847Z,32.44
2023-05-21T15:25:09.551Z,32.45
2023-05-21T15:27:37.812Z,32.44
2023-05-21T15:30:09.111Z,32.47
2023-05-21T15:32:37.895Z,32.46
2023-05-21T15:35:07.331Z,32.41
2023-05-21T15:37:35.847Z,32.39
2023-05-21T15:40:05.114Z,32.43
2023-05-21T15:42:33.781Z,32.49
2023-05-21T15:45:02.515Z,32.52
2023-05-21T15:47:32.305Z,32.55
2023-05-21T15:50:01.329Z,32.58
2023-05-21T15:52:29.887Z,32.60
2023-05-21T15:54:58.426Z,32.62
2023-05-21T15:57:27.044Z,32.66
2023-05-21T15:59:56.004Z,32.68
2023-05-21T16:02:24.634Z,32.71
2023-05-21T16:04:54.285Z,32.70
2023-05-21T16:07:25.143Z,32.67
2023-05-21T16:09:53.767Z,32.66
2023-05-21T16:12:23.327Z,32.69
2023-05-21T16:14:51.750Z,32.74
2023-05-21T16:17:20.573Z,32.87
2023-05-21T16:19:49.206Z,32.97
2023-05-21T16:22:20.282Z,33.12
2023-05-21T16:24:49.080Z,33.21
2023-05-21T16:27:17.680Z,33.37
2023-05-21T16:29:46.370Z,33.58
2023-05-21T16:32:15.016Z,33.81
2023-05-21T16:34:43.812Z,33.99
2023-05-21T16:37:12.685Z,34.17
2023-05-21T16:39:42.386Z,34.30
2023-05-21T16:42:10.980Z,34.40
2023-05-21T16:44:39.639Z,34.53
2023-05-21T16:47:08.550Z,34.65
2023-05-21T16:49:37.128Z,34.77
2023-05-21T16:52:05.919Z,34.91
2023-05-21T16:54:34.865Z,34.99
2023-05-21T16:57:04.540Z,35.05
2023-05-21T16:59:33.109Z,34.95
2023-05-21T17:02:01.706Z,34.80
2023-05-21T17:04:30.564Z,34.66
2023-05-21T17:06:59.195Z,34.51
2023-05-21T17:09:27.781Z,34.36
2023-05-21T17:11:56.368Z,34.19
2023-05-21T17:14:34.296Z,34.04
2023-05-21T17:17:03.628Z,33.94
2023-05-21T17:19:32.387Z,33.85
2023-05-21T17:22:01.087Z,33.79
2023-05-21T17:24:29.628Z,33.66
2023-05-21T17:26:57.971Z,33.46
2023-05-21T17:29:27.630Z,33.24
2023-05-21T17:31:56.151Z,32.94
2023-05-21T17:34:29.246Z,32.65
2023-05-21T17:36:58.925Z,32.34
2023-05-21T17:39:27.770Z,32.01
2023-05-21T17:41:57.143Z,31.67
2023-05-21T17:44:27.142Z,31.38
2023-05-21T17:46:56.363Z,31.14
2023-05-21T17:49:25.169Z,30.89
2023-05-21T17:51:54.703Z,30.66
2023-05-21T17:54:23.306Z,30.46
2023-05-21T17:56:52.011Z,30.24
2023-05-21T17:59:21.200Z,30.04
2023-05-21T18:01:50.879Z,29.87
2023-05-21T18:04:19.680Z,29.64
2023-05-21T18:06:48.277Z,29.47
2023-05-21T18:09:16.844Z,29.31
2023-05-21T18:11:45.414Z,29.17
2023-05-21T18:14:13.991Z,29.02
2023-05-21T18:16:42.484Z,28.89
2023-05-21T18:19:12.237Z,28.78
2023-05-21T18:21:40.814Z,28.66
2023-05-21T18:24:09.593Z,28.54
2023-05-21T18:26:38.168Z,28.43
2023-05-21T18:29:06.863Z,28.31
2023-05-21T18:31:35.494Z,28.19
2023-05-21T18:34:04.182Z,28.10
2023-05-21T18:36:38.657Z,28.02
2023-05-21T18:39:08.227Z,27.91
2023-05-21T18:41:37.275Z,27.81
2023-05-21T18:44:06.885Z,27.68
2023-05-21T18:46:35.365Z,27.58
2023-05-21T18:49:03.741Z,27.47
2023-05-21T18:51:33.672Z,27.37
2023-05-21T18:54:01.988Z,27.23
2023-05-21T18:56:30.799Z,27.13
2023-05-21T18:58:59.329Z,27.00
2023-05-21T19:01:28.034Z,26.90
2023-05-21T19:03:56.689Z,26.79
2023-05-21T19:06:27.631Z,26.68
2023-05-21T19:08:57.279Z,26.61
2023-05-21T19:11:30.944Z,26.50
2023-05-21T19:14:00.509Z,26.41
2023-05-21T19:16:29.063Z,26.30
2023-05-21T19:18:57.768Z,26.22
2023-05-21T19:21:26.413Z,26.14
2023-05-21T19:23:56.405Z,26.05
2023-05-21T19:26:25.209Z,25.98
2023-05-21T19:28:54.626Z,25.90
2023-05-21T19:31:25.165Z,25.81
2023-05-21T19:33:54.019Z,25.70
2023-05-21T19:36:22.670Z,25.62
2023-05-21T19:38:51.753Z,25.55
2023-05-21T19:41:22.595Z,25.45
2023-05-21T19:43:51.493Z,25.37
2023-05-21T19:46:20.645Z,25.29
2023-05-21T19:48:49.585Z,25.23
2023-05-21T19:51:18.237Z,25.16
2023-05-21T19:53:46.833Z,25.10
2023-05-21T19:56:15.522Z,25.03
2023-05-21T19:58:47.911Z,24.97
2023-05-21T20:01:17.339Z,24.90
2023-05-21T20:03:46.032Z,24.84
2023-05-21T20:06:16.899Z,24.77
2023-05-21T20:08:45.676Z,24.72
2023-05-21T20:11:14.387Z,24.68
2023-05-21T20:13:48.469Z,24.62
2023-05-21T20:16:18.202Z,24.54
2023-05-21T20:18:47.249Z,24.49
2023-05-21T20:21:17.437Z,24.45
2023-05-21T20:23:46.155Z,24.37
2023-05-21T20:26:14.883Z,24.32
2023-05-21T20:28:44.679Z,24.27
2023-05-21T20:31:13.301Z,24.21
2023-05-21T20:33:41.851Z,24.14
2023-05-21T20:36:11.042Z,24.07
2023-05-21T20:38:42.023Z,23.99
2023-05-21T20:41:10.776Z,23.92
2023-05-21T20:43:39.125Z,23.85
2023-05-21T20:46:08.789Z,23.79
2023-05-21T20:48:37.852Z,23.70
2023-05-21T20:51:06.832Z,23.62
2023-05-21T20:53:35.110Z,23.55
2023-05-21T20:56:08.172Z,23.48
2023-05-21T20:58:36.943Z,23.41
2023-05-21T21:01:05.493Z,23.35
2023-05-21T21:03:35.296Z,23.29
2023-05-21T21:06:04.307Z,23.22
2023-05-21T21:08:34.585Z,23.13
2023-05-21T21:11:03.161Z,23.05
2023-05-21T21:13:31.769Z,22.97
2023-05-21T21:16:00.358Z,22.89
2023-05-21T21:18:29.176Z,22.84
2023-05-21T21:21:06.575Z,22.82
2023-05-21T21:23:35.217Z,22.74
2023-05-21T21:29:25.599Z,22.60
2023-05-21T21:31:53.938Z,22.54
2023-05-21T21:34:23.445Z,22.49
2023-05-21T21:36:53.080Z,22.45
2023-05-21T21:39:21.630Z,22.40
2023-05-21T21:41:49.882Z,22.37
2023-05-21T21:44:18.486Z,22.38
2023-05-21T21:46:47.023Z,22.37
2023-05-21T21:49:17.178Z,22.36
2023-05-21T21:51:45.904Z,22.32
2023-05-21T21:54:15.544Z,22.32
2023-05-21T21:56:44.078Z,22.28
2023-05-21T21:59:12.650Z,22.23
2023-05-21T22:01:41.005Z,22.20
2023-05-21T22:04:09.718Z,22.16
2023-05-21T22:06:38.964Z,22.09
2023-05-21T22:09:07.861Z,22.06
2023-05-21T22:11:37.515Z,22.03
2023-05-21T22:14:06.333Z,21.97
2023-05-21T22:16:34.923Z,21.90
2023-05-21T22:19:03.513Z,21.82
2023-05-21T22:21:33.027Z,21.77
2023-05-21T22:24:01.801Z,21.73
2023-05-21T22:26:30.004Z,21.65
2023-05-21T22:28:59.938Z,21.63
2023-05-21T22:31:28.717Z,21.57
2023-05-21T22:33:57.353Z,21.50
2023-05-21T22:36:25.663Z,21.45
2023-05-21T22:38:54.243Z,21.42
2023-05-21T22:41:22.872Z,21.41
2023-05-21T22:43:52.226Z,21.38
2023-05-21T22:46:21.890Z,21.36
2023-05-21T22:48:50.145Z,21.31
2023-05-21T22:51:18.739Z,21.26
2023-05-21T22:53:47.176Z,21.20
2023-05-21T22:56:15.706Z,21.17
2023-05-21T22:58:45.109Z,21.14
2023-05-21T23:01:13.555Z,21.11
2023-05-21T23:03:43.131Z,21.10
2023-05-21T23:06:12.537Z,21.08
2023-05-21T23:08:41.090Z,21.08
2023-05-21T23:11:09.739Z,21.06
2023-05-21T23:13:38.323Z,21.05
2023-05-21T23:16:07.706Z,21.05
2023-05-21T23:18:36.535Z,21.04
2023-05-21T23:21:06.706Z,21.03
2023-05-21T23:23:34.977Z,20.99
2023-05-21T23:26:03.437Z,20.98
2023-05-21T23:28:31.833Z,20.94
2023-05-21T23:31:00.131Z,20.93
2023-05-21T23:33:28.840Z,20.93
2023-05-21T23:35:57.398Z,20.90
2023-05-21T23:38:27.015Z,20.89
2023-05-21T23:40:55.573Z,20.85
2023-05-21T23:43:23.812Z,20.80
2023-05-21T23:45:52.071Z,20.76
2023-05-21T23:48:20.755Z,20.71
2023-05-21T23:50:49.453Z,20.65
2023-05-21T23:53:19.509Z,20.58
2023-05-21T23:55:49.106Z,20.51
2023-05-21T23:58:17.780Z,20.44
